Upper Wheatfields, Arizona
Current Conditions -  °F | °C
As of 1:53 PM on Friday 19 Dec 2014 (Local Time) from KRQE Reporting Station
Clear Clear  
Wind Chill: 39°   Ceiling: Unl
Heat Index: 42°   Visibility: 10mi
Dew Point: 23°   Wind: 5mph
Humidity: 47%   Direction: 280°W
Pressure: 30.17"   Gusts: NA
Location:  36.4446°N, 109.262°W
Report Text: KRQE 192053Z AUTO 28004KT 10SM CLR 06/M05 A3017 RMK AO2 SLP200 T00561050 56025 TSNO
Loading
Personal Weather Stations






























Interactive Weather Map New forecast layout! Learn more

10-Day Weather Forecast

Advertisements
Track Severe Weather on mobile